ADDS METAR Data INFO
IDs: Format: Raw Decoded Include TAF

Data at: 0740 UTC 21 Jul 2018

PANI 210656Z AUTO 14007KT 10SM OVC075 20/13 A3019 RMK AO2 SLP191 T02000133
PANI 210556Z AUTO 16008KT 10SM SCT070 BKN095 22/13 A3018 RMK AO2 SLP189 T02170128 10244 20217 53009
PANI 210456Z AUTO 15010G18KT 10SM BKN070 22/13 A3016 RMK AO2 SLP183 T02220128
PANI 210356Z AUTO 14011KT 10SM BKN065 23/13 A3016 RMK AO2 SLP181 T02330133
PANI 210256Z AUTO 13011G16KT 9SM BKN065 23/13 A3016 RMK AO2 SLP180 T02330133 56005
PANI 210156Z AUTO 15010G14KT 9SM SCT049 BKN070 24/14 A3016 RMK AO2 SLP181 T02390139
PANI 210056Z AUTO 13010KT 9SM FEW048 24/13 A3016 RMK AO2 SLP182 T02390133
PANI 202356Z AUTO 17007KT 130V210 10SM BKN048 24/14 A3017 RMK AO2 SLP186 T02440139 10244 20150 58006
PANI 202256Z AUTO 15011KT 10SM CLR 24/12 A3018 RMK AO2 SLP188 T02390117
PANI 202156Z AUTO 12006KT 8SM CLR 23/11 A3018 RMK AO2 SLP190 T02280111
PANI 202104Z AUTO 16008KT 120V190 4SM HZ CLR 22/13 A3019 RMK AO2
PANI 202056Z AUTO 13007KT 2 1/2SM HZ CLR 21/13 A3019 RMK AO2 VIS 3/4V5 SLP192 T02110128 58007
PANI 202035Z AUTO 12005KT 4SM HZ CLR 21/13 A3020 RMK AO2
PANI 202028Z AUTO 13005KT 2SM HZ CLR 20/13 A3020 RMK AO2 VIS 1/4V5
PANI 201956Z AUTO 14006KT 10SM CLR 20/13 A3020 RMK AO2 SLP194 T02000128
PANI 201856Z AUTO 00000KT 10SM CLR 17/13 A3021 RMK AO2 SLP197 T01720133
PANI 201756Z AUTO 07005KT 10SM CLR 15/12 A3021 RMK AO2 SLP199 T01500117 10150 20089 58001
PANI 201656Z AUTO 09005KT 9SM CLR 13/11 A3022 RMK AO2 SLP200 T01330106
PANI 201556Z AUTO 11005KT 10SM CLR 12/11 A3022 RMK AO2 SLP200 T01170106
PANI 201456Z AUTO 00000KT 10SM CLR 11/09 A3021 RMK AO2 SLP200 T01060094 50001
PANI 201356Z AUTO 08004KT 10SM CLR 11/10 A3022 RMK AO2 SLP200 T01060100
PANI 201256Z AUTO 00000KT 10SM CLR 09/09 A3021 RMK AO2 SLP200 T00940089
PANI 201156Z AUTO 00000KT 10SM CLR 13/11 A3021 RMK AO2 SLP199 T01280106 10183 20128 51003
PANI 201056Z AUTO 03004KT 10SM CLR 14/11 A3021 RMK AO2 SLP199 T01440111
PANI 200956Z AUTO VRB03KT 10SM CLR 15/11 A3021 RMK AO2 SLP198 T01500111
PANI 200856Z AUTO 34007KT 10SM CLR 16/12 A3020 RMK AO2 SLP196 T01560117 402060072 53004
PANI 200756Z AUTO 34007KT 10SM CLR 16/12 A3019 RMK AO2 SLP193 T01610117
PANI 200656Z AUTO 34008KT 10SM CLR 17/12 A3019 RMK AO2 SLP191 T01720117
PANI 200556Z AUTO 34009KT 10SM CLR 18/12 A3019 RMK AO2 SLP191 T01830117 10206 20172 56004
PANI 200456Z AUTO 35010KT 10SM CLR 19/12 A3019 RMK AO2 SLP191 T01890117
PANI 200356Z AUTO 35005KT 10SM CLR 19/12 A3019 RMK AO2 SLP193 T01940122
PANI 200256Z AUTO VRB05KT 8SM CLR 20/12 A3020 RMK AO2 SLP195 T02000122 56009
PANI 200156Z AUTO VRB03KT 8SM CLR 20/12 A3021 RMK AO2 SLP197 T02000117
PANI 200056Z AUTO 00000KT 9SM CLR 19/12 A3022 RMK AO2 SLP201 T01940117
PANI 192356Z AUTO 34003KT 7SM BKN033 17/11 A3023 RMK AO2 SLP204 T01720111 10183 20122 58004
PANI 192256Z AUTO 00000KT 4SM HZ SCT036 18/12 A3023 RMK AO2 SLP206 T01830117
PANI 192214Z AUTO 36004KT 5SM HZ SCT026 OVC034 16/11 A3024 RMK AO2
PANI 192156Z AUTO 31004KT 8SM SCT018 OVC026 16/12 A3024 RMK AO2 SLP209 T01560117
PANI 192056Z AUTO 00000KT 8SM OVC018 15/11 A3024 RMK AO2 SLP209 T01500111 53002
PANI 191956Z AUTO 30003KT 8SM OVC018 14/11 A3024 RMK AO2 SLP207 T01440111